createdAt,value
2023-05-09T00:00:45.904Z,18.44
2023-05-09T00:03:12.590Z,18.43
2023-05-09T00:05:39.310Z,18.47
2023-05-09T00:08:05.993Z,18.44
2023-05-09T00:10:32.752Z,18.41
2023-05-09T00:12:59.420Z,18.35
2023-05-09T00:15:26.054Z,18.32
2023-05-09T00:17:52.784Z,18.21
2023-05-09T00:20:19.574Z,18.16
2023-05-09T00:22:46.284Z,18.17
2023-05-09T00:25:13.115Z,18.12
2023-05-09T00:27:39.943Z,18.12
2023-05-09T00:30:07.267Z,18.08
2023-05-09T00:32:34.287Z,18.06
2023-05-09T00:35:01.021Z,18.05
2023-05-09T00:37:29.393Z,18.10
2023-05-09T00:39:56.074Z,18.13
2023-05-09T00:42:22.754Z,18.13
2023-05-09T00:44:49.374Z,18.11
2023-05-09T00:47:16.031Z,18.11
2023-05-09T00:49:42.769Z,18.10
2023-05-09T00:52:09.399Z,18.09
2023-05-09T00:54:36.017Z,18.11
2023-05-09T00:57:02.779Z,18.11
2023-05-09T00:59:29.384Z,18.05
2023-05-09T01:01:56.042Z,18.03
2023-05-09T01:04:22.690Z,18.01
2023-05-09T01:07:00.715Z,18.02
2023-05-09T01:10:14.597Z,17.96
2023-05-09T01:12:55.842Z,17.85
2023-05-09T01:15:37.926Z,17.86
2023-05-09T01:18:21.538Z,17.82
2023-05-09T01:20:53.532Z,17.84
2023-05-09T01:23:44.700Z,17.79
2023-05-09T01:26:35.923Z,17.79
2023-05-09T01:29:25.712Z,17.75
2023-05-09T01:31:52.307Z,17.68
2023-05-09T01:34:18.911Z,17.66
2023-05-09T01:36:45.537Z,17.66
2023-05-09T01:39:12.784Z,17.63
2023-05-09T01:41:39.434Z,17.66
2023-05-09T01:44:07.929Z,17.68
2023-05-09T01:46:34.904Z,17.71
2023-05-09T01:49:02.385Z,17.74
2023-05-09T01:51:29.049Z,17.73
2023-05-09T01:53:55.691Z,17.70
2023-05-09T01:56:22.550Z,17.68
2023-05-09T01:58:50.002Z,17.66
2023-05-09T02:01:16.697Z,17.65
2023-05-09T02:03:43.365Z,17.64
2023-05-09T02:06:10.118Z,17.67
2023-05-09T02:08:36.858Z,17.64
2023-05-09T02:11:03.485Z,17.62
2023-05-09T02:13:30.127Z,17.63
2023-05-09T02:15:56.843Z,17.67
2023-05-09T02:18:23.470Z,17.67
2023-05-09T02:20:50.128Z,17.66
2023-05-09T02:23:16.747Z,17.65
2023-05-09T02:25:43.365Z,17.68
2023-05-09T02:28:10.033Z,17.66
2023-05-09T02:30:40.104Z,17.66
2023-05-09T02:33:07.606Z,17.67
2023-05-09T02:35:34.484Z,17.71
2023-05-09T02:38:01.243Z,17.70
2023-05-09T02:40:28.504Z,17.70
2023-05-09T02:42:55.759Z,17.66
2023-05-09T02:45:22.428Z,17.63
2023-05-09T02:47:49.954Z,17.66
2023-05-09T02:50:16.864Z,17.71
2023-05-09T02:52:43.621Z,17.68
2023-05-09T02:55:10.426Z,17.67
2023-05-09T02:57:38.062Z,17.68
2023-05-09T03:00:06.341Z,17.70
2023-05-09T03:02:33.084Z,17.75
2023-05-09T03:05:01.168Z,17.80
2023-05-09T03:07:27.777Z,17.80
2023-05-09T03:09:54.399Z,17.80
2023-05-09T03:12:21.035Z,17.85
2023-05-09T03:14:47.627Z,17.88
2023-05-09T03:17:14.329Z,17.90
2023-05-09T03:19:40.976Z,17.89
2023-05-09T03:22:07.620Z,17.88
2023-05-09T03:24:34.222Z,17.91
2023-05-09T03:27:00.882Z,17.91
2023-05-09T03:29:27.536Z,17.94
2023-05-09T03:31:54.282Z,17.98
2023-05-09T03:34:20.917Z,17.95
2023-05-09T03:36:48.594Z,17.86
2023-05-09T03:39:15.250Z,17.82
2023-05-09T03:41:41.855Z,17.84
2023-05-09T03:44:08.455Z,17.85
2023-05-09T03:46:35.094Z,17.88
2023-05-09T03:49:01.745Z,17.89
2023-05-09T03:51:28.344Z,17.94
2023-05-09T03:53:55.237Z,18.02
2023-05-09T03:56:23.865Z,18.00
2023-05-09T03:58:50.517Z,18.01
2023-05-09T04:01:17.161Z,18.03
2023-05-09T04:03:43.890Z,17.99
2023-05-09T04:06:10.626Z,18.01
2023-05-09T04:08:39.805Z,18.04
2023-05-09T04:11:06.592Z,18.04
2023-05-09T04:13:36.004Z,17.96
2023-05-09T04:16:02.686Z,17.98
2023-05-09T04:18:29.334Z,17.95
2023-05-09T04:20:55.963Z,17.99
2023-05-09T04:23:23.982Z,17.97
2023-05-09T04:25:50.636Z,17.95
2023-05-09T04:28:17.587Z,17.93
2023-05-09T04:30:45.565Z,17.88
2023-05-09T04:33:12.202Z,17.84
2023-05-09T04:35:38.883Z,17.91
2023-05-09T04:38:05.683Z,18.01
2023-05-09T04:40:32.416Z,18.03
2023-05-09T04:42:59.082Z,18.03
2023-05-09T04:45:25.726Z,17.97
2023-05-09T04:47:52.486Z,18.03
2023-05-09T04:50:19.198Z,18.13
2023-05-09T04:52:46.850Z,18.23
2023-05-09T04:55:13.734Z,18.28
2023-05-09T04:57:40.471Z,18.32
2023-05-09T05:00:08.964Z,18.36
2023-05-09T05:02:35.602Z,18.44
2023-05-09T05:05:10.899Z,18.54
2023-05-09T05:07:38.935Z,18.65
2023-05-09T05:10:06.065Z,18.71
2023-05-09T05:12:32.846Z,18.79
2023-05-09T05:14:59.505Z,18.84
2023-05-09T05:17:26.172Z,18.93
2023-05-09T05:19:52.818Z,18.90
2023-05-09T05:22:19.404Z,18.93
2023-05-09T05:24:48.812Z,18.92
2023-05-09T05:27:15.467Z,19.00
2023-05-09T05:29:42.133Z,19.03
2023-05-09T05:32:08.834Z,19.07
2023-05-09T05:34:35.450Z,19.07
2023-05-09T05:37:02.077Z,19.16
2023-05-09T05:39:28.673Z,19.17
2023-05-09T05:41:55.335Z,19.22
2023-05-09T05:44:21.946Z,19.28
2023-05-09T05:46:49.807Z,19.30
2023-05-09T05:49:16.468Z,19.38
2023-05-09T05:51:43.115Z,19.44
2023-05-09T05:54:09.802Z,19.48
2023-05-09T05:56:36.581Z,19.55
2023-05-09T05:59:03.176Z,19.60
2023-05-09T06:01:29.922Z,19.70
2023-05-09T06:03:56.634Z,19.89
2023-05-09T06:06:23.396Z,20.11
2023-05-09T06:08:50.025Z,20.08
2023-05-09T06:11:16.830Z,20.10
2023-05-09T06:13:43.813Z,20.08
2023-05-09T06:18:40.102Z,20.03
2023-05-09T06:21:06.940Z,19.93
2023-05-09T06:23:33.648Z,20.01
2023-05-09T06:26:00.394Z,19.99
2023-05-09T06:28:27.000Z,20.08
2023-05-09T06:30:53.704Z,20.13
2023-05-09T06:33:21.464Z,20.12
2023-05-09T06:35:48.307Z,20.04
2023-05-09T06:38:14.954Z,20.08
2023-05-09T06:40:41.636Z,20.08
2023-05-09T06:43:08.249Z,20.06
2023-05-09T06:45:34.910Z,20.06
2023-05-09T06:48:01.711Z,20.03
2023-05-09T06:50:29.760Z,19.94
2023-05-09T06:52:57.406Z,19.89
2023-05-09T06:55:24.032Z,19.92
2023-05-09T06:57:50.665Z,19.95
2023-05-09T07:00:17.491Z,20.05
2023-05-09T07:02:44.163Z,20.10
2023-05-09T07:05:10.917Z,20.20
2023-05-09T07:07:37.642Z,20.30
2023-05-09T07:10:11.195Z,20.21
2023-05-09T07:12:38.980Z,20.39
2023-05-09T07:15:06.098Z,20.45
2023-05-09T07:17:32.723Z,20.44
2023-05-09T07:19:59.366Z,20.51
2023-05-09T07:22:26.057Z,20.65
2023-05-09T07:24:52.747Z,20.79
2023-05-09T07:27:19.410Z,20.78
2023-05-09T07:29:47.097Z,20.78
2023-05-09T07:32:13.912Z,20.71
2023-05-09T07:34:41.210Z,20.73
2023-05-09T07:37:09.104Z,20.75
2023-05-09T07:39:36.299Z,20.75
2023-05-09T07:42:02.967Z,20.93
2023-05-09T07:44:29.768Z,20.86
2023-05-09T07:46:57.384Z,20.82
2023-05-09T07:49:24.027Z,20.89
2023-05-09T07:51:50.816Z,20.88
2023-05-09T07:54:17.444Z,21.03
2023-05-09T07:56:44.556Z,21.12
2023-05-09T07:59:11.225Z,21.19
2023-05-09T08:01:37.995Z,21.34
2023-05-09T08:04:04.799Z,21.23
2023-05-09T08:06:31.467Z,21.32
2023-05-09T08:08:58.201Z,21.40
2023-05-09T08:11:24.809Z,21.42
2023-05-09T08:13:51.525Z,21.46
2023-05-09T08:16:18.219Z,21.59
2023-05-09T08:18:45.413Z,21.67
2023-05-09T08:21:12.083Z,21.78
2023-05-09T08:23:38.850Z,21.89
2023-05-09T08:26:05.659Z,21.95
2023-05-09T08:28:32.258Z,21.97
2023-05-09T08:30:59.000Z,21.90
2023-05-09T08:33:25.737Z,21.90
2023-05-09T08:35:54.832Z,21.92
2023-05-09T08:38:21.523Z,22.00
2023-05-09T08:40:48.265Z,21.82
2023-05-09T08:43:16.142Z,21.92
2023-05-09T08:45:53.409Z,21.96
2023-05-09T08:48:20.021Z,22.02
2023-05-09T08:50:46.624Z,22.04
2023-05-09T08:53:13.934Z,22.10
2023-05-09T08:55:40.942Z,22.08
2023-05-09T08:58:08.291Z,22.06
2023-05-09T09:00:37.262Z,22.05
2023-05-09T09:03:04.798Z,21.96
2023-05-09T09:05:41.169Z,21.97
2023-05-09T09:08:09.047Z,21.93
2023-05-09T09:10:36.103Z,22.00
2023-05-09T09:13:03.487Z,22.08
2023-05-09T09:15:33.595Z,22.17
2023-05-09T09:18:01.174Z,22.18
2023-05-09T09:20:29.709Z,22.10
2023-05-09T09:23:03.437Z,22.14
2023-05-09T09:25:32.574Z,22.12
2023-05-09T09:27:59.189Z,22.22
2023-05-09T09:30:27.571Z,22.28
2023-05-09T09:32:54.275Z,22.41
2023-05-09T09:35:22.333Z,22.47
2023-05-09T09:37:51.974Z,22.60
2023-05-09T09:40:18.644Z,22.68
2023-05-09T09:42:47.688Z,22.88
2023-05-09T09:45:16.359Z,22.98
2023-05-09T09:47:44.812Z,23.13
2023-05-09T09:50:11.949Z,23.29
2023-05-09T09:52:55.787Z,23.45
2023-05-09T09:55:23.969Z,23.44
2023-05-09T09:57:52.795Z,23.39
2023-05-09T10:00:30.730Z,23.19
2023-05-09T10:02:58.629Z,23.21
2023-05-09T10:05:28.780Z,23.18
2023-05-09T10:08:03.514Z,23.16
2023-05-09T10:10:32.293Z,23.11
2023-05-09T10:13:01.526Z,23.15
2023-05-09T10:15:33.468Z,23.15
2023-05-09T10:18:07.706Z,23.09
2023-05-09T10:20:34.539Z,23.34
2023-05-09T10:23:02.090Z,23.48
2023-05-09T10:25:38.045Z,23.27
2023-05-09T10:28:06.666Z,23.23
2023-05-09T10:30:35.903Z,23.36
2023-05-09T10:33:10.477Z,23.57
2023-05-09T10:35:43.644Z,23.70
2023-05-09T10:38:10.835Z,23.89
2023-05-09T10:40:37.606Z,24.12
2023-05-09T10:43:04.680Z,24.20
2023-05-09T10:45:31.835Z,24.24
2023-05-09T10:47:58.643Z,24.29
2023-05-09T10:50:25.290Z,24.29
2023-05-09T10:53:04.116Z,24.29
2023-05-09T10:55:48.042Z,24.29
2023-05-09T10:58:25.204Z,24.10
2023-05-09T11:00:52.444Z,24.04
2023-05-09T11:03:20.179Z,24.08
2023-05-09T11:05:51.941Z,23.93
2023-05-09T11:08:36.746Z,23.71
2023-05-09T11:11:06.767Z,23.65
2023-05-09T11:13:37.826Z,23.56
2023-05-09T11:16:06.122Z,23.61
2023-05-09T11:18:32.873Z,23.57
2023-05-09T11:21:00.934Z,23.50
2023-05-09T11:23:28.102Z,23.43
2023-05-09T11:25:54.834Z,23.35
2023-05-09T11:28:31.655Z,23.24
2023-05-09T11:31:11.079Z,23.24
2023-05-09T11:33:37.979Z,23.15
2023-05-09T11:36:29.453Z,23.32
2023-05-09T11:39:05.230Z,23.42
2023-05-09T11:41:32.417Z,23.51
2023-05-09T11:43:59.134Z,23.56
2023-05-09T11:46:26.970Z,23.71
2023-05-09T11:48:53.740Z,23.75
2023-05-09T11:51:20.349Z,23.72
2023-05-09T11:53:50.082Z,23.70
2023-05-09T11:56:17.945Z,23.87
2023-05-09T11:58:44.674Z,23.75
2023-05-09T12:01:12.317Z,23.95
2023-05-09T12:03:45.297Z,24.08
2023-05-09T12:06:18.051Z,24.04
2023-05-09T12:08:47.734Z,24.16
2023-05-09T12:11:14.736Z,24.03
2023-05-09T12:13:45.878Z,24.08
2023-05-09T12:16:12.629Z,24.08
2023-05-09T12:18:43.674Z,24.07
2023-05-09T12:21:10.277Z,24.18
2023-05-09T12:23:37.023Z,24.12
2023-05-09T12:26:03.638Z,24.06
2023-05-09T12:28:30.533Z,23.94
2023-05-09T12:30:57.693Z,24.02
2023-05-09T12:33:25.062Z,24.02
2023-05-09T12:36:07.350Z,24.02
2023-05-09T12:38:34.109Z,24.03
2023-05-09T12:41:03.652Z,23.95
2023-05-09T12:43:37.456Z,23.91
2023-05-09T12:46:04.418Z,23.91
2023-05-09T12:48:39.645Z,23.84
2023-05-09T12:51:06.491Z,23.74
2023-05-09T12:53:37.683Z,23.72
2023-05-09T12:56:05.311Z,23.54
2023-05-09T12:58:32.918Z,23.41
2023-05-09T13:01:00.134Z,23.45
2023-05-09T13:03:28.074Z,23.44
2023-05-09T13:06:03.608Z,23.45
2023-05-09T13:08:30.532Z,23.45
2023-05-09T13:11:07.886Z,23.29
2023-05-09T13:13:41.966Z,23.21
2023-05-09T13:16:10.384Z,23.13
2023-05-09T13:18:38.816Z,23.07
2023-05-09T13:21:05.471Z,23.11
2023-05-09T13:23:32.544Z,23.12
2023-05-09T13:25:59.369Z,23.01
2023-05-09T13:28:26.367Z,22.87
2023-05-09T13:30:53.127Z,22.73
2023-05-09T13:33:25.641Z,22.53
2023-05-09T13:35:53.257Z,22.35
2023-05-09T13:38:20.136Z,22.41
2023-05-09T13:40:46.845Z,22.45
2023-05-09T13:43:13.497Z,22.42
2023-05-09T13:45:40.100Z,22.42
2023-05-09T13:48:06.838Z,22.35
2023-05-09T13:50:34.001Z,22.31
2023-05-09T13:53:00.972Z,22.06
2023-05-09T13:55:27.698Z,22.05
2023-05-09T13:57:54.407Z,22.02
2023-05-09T14:00:21.684Z,22.04
2023-05-09T14:02:48.538Z,22.01
2023-05-09T14:05:15.456Z,21.99
2023-05-09T14:07:42.221Z,21.90
2023-05-09T14:10:11.801Z,21.92
2023-05-09T14:12:40.310Z,21.93
2023-05-09T14:15:09.908Z,21.95
2023-05-09T14:17:36.760Z,22.00
2023-05-09T14:20:03.714Z,21.95
2023-05-09T14:22:30.388Z,21.74
2023-05-09T14:24:57.316Z,21.68
2023-05-09T14:27:24.391Z,21.60
2023-05-09T14:29:51.063Z,21.44
2023-05-09T14:32:18.783Z,21.24
2023-05-09T14:34:46.682Z,21.37
2023-05-09T14:37:13.322Z,21.44
2023-05-09T14:39:40.662Z,21.34
2023-05-09T14:42:07.390Z,21.37
2023-05-09T14:44:34.805Z,21.28
2023-05-09T14:47:02.478Z,21.43
2023-05-09T14:49:29.224Z,21.40
2023-05-09T14:51:56.897Z,21.38
2023-05-09T14:54:23.576Z,21.34
2023-05-09T14:56:50.600Z,21.39
2023-05-09T14:59:17.350Z,21.33
2023-05-09T15:01:45.006Z,21.30
2023-05-09T15:04:11.764Z,21.15
2023-05-09T15:06:38.496Z,21.14
2023-05-09T15:09:07.287Z,21.09
2023-05-09T15:11:46.863Z,21.10
2023-05-09T15:14:14.903Z,20.96
2023-05-09T15:16:41.697Z,20.93
2023-05-09T15:19:08.467Z,20.82
2023-05-09T15:21:35.538Z,20.59
2023-05-09T15:24:02.255Z,20.65
2023-05-09T15:26:29.121Z,20.36
2023-05-09T15:28:55.955Z,20.22
2023-05-09T15:31:22.753Z,20.27
2023-05-09T15:33:52.156Z,20.25
2023-05-09T15:36:21.449Z,20.30
2023-05-09T15:38:48.249Z,20.21
2023-05-09T15:41:15.423Z,20.14
2023-05-09T15:43:42.127Z,20.20
2023-05-09T15:46:09.668Z,20.16
2023-05-09T15:48:36.378Z,20.12
2023-05-09T15:51:03.106Z,20.01
2023-05-09T15:53:29.952Z,20.00
2023-05-09T15:55:56.667Z,20.08
2023-05-09T15:58:23.507Z,20.06
2023-05-09T16:00:50.361Z,20.12
2023-05-09T16:03:18.026Z,20.10
2023-05-09T16:05:44.823Z,20.02
2023-05-09T16:08:11.534Z,20.03
2023-05-09T16:10:38.367Z,20.06
2023-05-09T16:13:05.041Z,19.90
2023-05-09T16:15:33.044Z,19.93
2023-05-09T16:17:59.755Z,19.83
2023-05-09T16:20:27.529Z,19.82
2023-05-09T16:22:54.188Z,19.82
2023-05-09T16:25:20.794Z,19.72
2023-05-09T16:27:47.388Z,19.52
2023-05-09T16:30:14.865Z,19.46
2023-05-09T16:32:41.835Z,19.63
2023-05-09T16:35:08.657Z,19.67
2023-05-09T16:37:35.701Z,19.64
2023-05-09T16:40:02.520Z,19.66
2023-05-09T16:42:29.377Z,19.66
2023-05-09T16:44:56.909Z,19.61
2023-05-09T16:47:23.677Z,19.53
2023-05-09T16:49:50.569Z,19.64
2023-05-09T16:52:17.242Z,19.51
2023-05-09T16:54:43.925Z,19.53
2023-05-09T16:57:10.533Z,19.60
2023-05-09T16:59:37.192Z,19.41
2023-05-09T17:02:04.257Z,19.25
2023-05-09T17:04:30.983Z,19.26
2023-05-09T17:06:57.665Z,19.37
2023-05-09T17:09:24.617Z,19.41
2023-05-09T17:11:51.316Z,19.44
2023-05-09T17:14:17.940Z,19.34
2023-05-09T17:16:44.858Z,19.31
2023-05-09T17:19:11.501Z,19.37
2023-05-09T17:21:38.422Z,19.31
2023-05-09T17:24:05.164Z,19.32
2023-05-09T17:26:31.839Z,19.37
2023-05-09T17:28:58.508Z,19.17
2023-05-09T17:31:25.192Z,19.07
2023-05-09T17:33:51.856Z,19.01
2023-05-09T17:36:18.694Z,18.96
2023-05-09T17:38:45.359Z,19.04
2023-05-09T17:41:12.016Z,19.00
2023-05-09T17:43:38.655Z,18.95
2023-05-09T17:46:05.310Z,18.90
2023-05-09T17:48:31.940Z,18.44
2023-05-09T17:50:58.599Z,17.82
2023-05-09T17:53:25.297Z,17.72
2023-05-09T17:55:51.957Z,17.64
2023-05-09T17:58:18.619Z,17.72
2023-05-09T18:00:45.236Z,17.73
2023-05-09T18:03:11.945Z,17.92
2023-05-09T18:05:38.679Z,18.13
2023-05-09T18:08:05.410Z,18.17
2023-05-09T18:10:32.061Z,18.18
2023-05-09T18:12:58.751Z,18.25
2023-05-09T18:15:25.501Z,18.38
2023-05-09T18:17:52.221Z,18.52
2023-05-09T18:20:18.986Z,18.51
2023-05-09T18:22:46.514Z,18.64
2023-05-09T18:25:13.361Z,18.71
2023-05-09T18:27:40.000Z,18.83
2023-05-09T18:30:07.429Z,18.84
2023-05-09T18:32:34.114Z,18.87
2023-05-09T18:35:00.785Z,18.95
2023-05-09T18:37:27.478Z,18.99
2023-05-09T18:39:54.113Z,18.99
2023-05-09T18:42:20.840Z,19.01
2023-05-09T18:44:47.574Z,19.03
2023-05-09T18:47:14.256Z,19.03
2023-05-09T18:49:40.980Z,19.04
2023-05-09T18:52:08.067Z,19.05
2023-05-09T18:54:34.709Z,19.05
2023-05-09T18:57:01.834Z,19.10
2023-05-09T18:59:28.506Z,19.10
2023-05-09T19:01:55.535Z,19.09
2023-05-09T19:04:22.256Z,19.03
2023-05-09T19:06:49.035Z,19.04
2023-05-09T19:09:15.645Z,18.93
2023-05-09T19:11:42.245Z,18.99
2023-05-09T19:14:08.870Z,18.96
2023-05-09T19:16:35.634Z,19.03
2023-05-09T19:19:02.296Z,19.05
2023-05-09T19:21:28.965Z,19.06
2023-05-09T19:23:55.528Z,19.06
2023-05-09T19:26:22.129Z,19.01
2023-05-09T19:28:48.905Z,18.95
2023-05-09T19:31:15.696Z,18.92
2023-05-09T19:33:43.205Z,18.88
2023-05-09T19:36:10.079Z,18.93
2023-05-09T19:38:36.722Z,18.97
2023-05-09T19:41:04.953Z,19.01
2023-05-09T19:43:31.865Z,18.92
2023-05-09T19:45:58.528Z,18.83
2023-05-09T19:48:25.163Z,18.60
2023-05-09T19:50:56.002Z,18.37
2023-05-09T19:53:22.579Z,18.36
2023-05-09T19:55:49.178Z,18.31
2023-05-09T19:58:17.654Z,18.36
2023-05-09T20:00:44.791Z,18.42
2023-05-09T20:03:11.474Z,18.46
2023-05-09T20:05:56.140Z,18.17
2023-05-09T20:08:22.686Z,17.93
2023-05-09T20:10:49.227Z,17.80
2023-05-09T20:13:15.839Z,17.78
2023-05-09T20:15:42.402Z,17.99
2023-05-09T20:18:09.016Z,17.91
2023-05-09T20:20:35.606Z,18.09
2023-05-09T20:23:02.194Z,18.13
2023-05-09T20:25:28.728Z,18.21
2023-05-09T20:27:55.342Z,18.17
2023-05-09T20:30:22.189Z,18.26
2023-05-09T20:32:48.910Z,18.33
2023-05-09T20:35:15.626Z,18.35
2023-05-09T20:37:42.196Z,18.33
2023-05-09T20:40:09.069Z,18.27
2023-05-09T20:42:35.901Z,18.34
2023-05-09T20:45:02.460Z,18.39
2023-05-09T20:47:29.049Z,18.47
2023-05-09T20:49:58.106Z,18.43
2023-05-09T20:52:24.977Z,18.03
2023-05-09T20:54:51.576Z,18.08
2023-05-09T20:57:18.142Z,18.18
2023-05-09T20:59:44.710Z,18.25
2023-05-09T21:02:11.270Z,18.38
2023-05-09T21:04:37.884Z,18.46
2023-05-09T21:07:04.469Z,18.43
2023-05-09T21:09:31.016Z,18.50
2023-05-09T21:11:57.553Z,18.45
2023-05-09T21:14:24.121Z,18.51
2023-05-09T21:16:50.726Z,18.50
2023-05-09T21:19:17.304Z,18.51
2023-05-09T21:21:43.842Z,18.53
2023-05-09T21:24:10.384Z,18.58
2023-05-09T21:26:36.924Z,18.56
2023-05-09T21:29:03.522Z,18.59
2023-05-09T21:31:30.106Z,18.56
2023-05-09T21:33:57.620Z,18.49
2023-05-09T21:36:24.183Z,18.50
2023-05-09T21:38:50.753Z,18.43
2023-05-09T21:41:17.296Z,18.39
2023-05-09T21:43:43.848Z,18.38
2023-05-09T21:46:10.560Z,18.38
2023-05-09T21:48:37.172Z,18.41
2023-05-09T21:51:03.984Z,18.41
2023-05-09T21:53:30.539Z,18.46
2023-05-09T21:55:57.120Z,18.47
2023-05-09T21:58:23.674Z,18.41
2023-05-09T22:00:50.238Z,18.41
2023-05-09T22:03:16.908Z,18.45
2023-05-09T22:05:43.603Z,18.40
2023-05-09T22:08:10.163Z,18.38
2023-05-09T22:10:36.718Z,18.30
2023-05-09T22:13:03.356Z,18.25
2023-05-09T22:15:30.025Z,18.18
2023-05-09T22:17:56.663Z,18.26
2023-05-09T22:20:23.406Z,18.21
2023-05-09T22:22:49.948Z,18.18
2023-05-09T22:25:16.598Z,18.17
2023-05-09T22:27:43.137Z,18.18
2023-05-09T22:30:09.913Z,18.18
2023-05-09T22:32:36.521Z,18.22
2023-05-09T22:35:03.170Z,18.21
2023-05-09T22:37:29.987Z,18.23
2023-05-09T22:39:56.576Z,18.21
2023-05-09T22:42:23.185Z,18.15
2023-05-09T22:44:49.868Z,17.98
2023-05-09T22:47:16.520Z,17.95
2023-05-09T22:49:44.570Z,17.85
2023-05-09T22:52:12.904Z,17.81
2023-05-09T22:54:39.500Z,17.82
2023-05-09T22:57:06.156Z,17.90
2023-05-09T22:59:33.110Z,17.85
2023-05-09T23:01:59.780Z,17.84
2023-05-09T23:04:26.472Z,17.85
2023-05-09T23:06:53.105Z,17.87
2023-05-09T23:09:19.717Z,17.80
2023-05-09T23:11:46.371Z,17.86
2023-05-09T23:14:13.036Z,17.84
2023-05-09T23:16:39.731Z,17.85
2023-05-09T23:19:06.388Z,17.82
2023-05-09T23:21:33.001Z,17.83
2023-05-09T23:23:59.768Z,17.80
2023-05-09T23:26:26.434Z,17.81
2023-05-09T23:28:53.045Z,17.83
2023-05-09T23:31:19.714Z,17.86
2023-05-09T23:33:46.374Z,17.68
2023-05-09T23:36:13.023Z,17.68
2023-05-09T23:38:39.666Z,17.63
2023-05-09T23:41:06.305Z,17.71
2023-05-09T23:43:32.935Z,17.61
2023-05-09T23:45:59.537Z,17.54
2023-05-09T23:48:26.160Z,17.52
2023-05-09T23:50:52.802Z,17.52
2023-05-09T23:53:19.447Z,17.52
2023-05-09T23:55:46.109Z,17.47
2023-05-09T23:58:12.725Z,17.44
